Westwood, Indiana
Current Conditions -  °F | °C
As of 8:53 PM on Monday 24 Nov 2014 (Local Time) from KMIE Reporting Station
Overcast Overcast  
Wind Chill: 26°   Ceiling: 3800
Heat Index: 37°   Visibility: 10mi
Dew Point: 27°   Wind: 23mph
Humidity: 67%   Direction: 250°WSW
Pressure: 29.81"   Gusts: 31mph
Location:  39.9231°N, 85.3444°W
Report Text: KMIE 250153Z 25020G27KT 10SM FEW030 OVC038 03/M03 A2981 RMK AO2 PK WND 23027/0107 SLP094 T00281028
Loading
Personal Weather Stations






























Interactive Weather Map New forecast layout! Learn more

10-Day Weather Forecast

Advertisements
Track Severe Weather on mobile